createdAt,value
2022-10-11T00:00:25.649Z,5.7
2022-10-11T00:02:27.736Z,5.6
2022-10-11T00:04:32.993Z,5.6
2022-10-11T00:06:35.131Z,5.6
2022-10-11T00:08:37.199Z,5.5
2022-10-11T00:09:39.815Z,5.5
2022-10-11T00:11:41.909Z,5.5
2022-10-11T00:15:46.157Z,5.5
2022-10-11T00:17:51.344Z,5.5
2022-10-11T00:19:53.464Z,5.5
2022-10-11T00:21:55.608Z,5.5
2022-10-11T00:23:57.752Z,5.4
2022-10-11T00:25:59.828Z,5.4
2022-10-11T00:28:01.911Z,5.3
2022-10-11T00:30:03.997Z,5.3
2022-10-11T00:32:11.915Z,5.4
2022-10-11T00:34:11.342Z,5.5
2022-10-11T00:36:13.430Z,5.4
2022-10-11T00:38:15.516Z,5.3
2022-10-11T00:40:17.603Z,5.2
2022-10-11T00:42:19.700Z,5.1
2022-10-11T00:44:21.790Z,5.2
2022-10-11T00:46:27.016Z,5.3
2022-10-11T00:48:29.092Z,5.3
2022-10-11T00:50:31.188Z,5.4
2022-10-11T00:52:33.277Z,5.4
2022-10-11T00:54:35.338Z,5.3
2022-10-11T00:56:37.427Z,5.2
2022-10-11T00:58:39.535Z,5.2
2022-10-11T01:00:44.764Z,5.1
2022-10-11T01:02:46.833Z,5.1
2022-10-11T01:05:01.003Z,5.1
2022-10-11T01:05:51.561Z,5
2022-10-11T01:07:53.640Z,5
2022-10-11T01:09:55.709Z,4.9
2022-10-11T01:11:57.802Z,4.8
2022-10-11T01:14:03.037Z,4.8
2022-10-11T01:16:05.461Z,4.8
2022-10-11T01:18:07.175Z,4.8
2022-10-11T01:20:09.269Z,4.8
2022-10-11T01:22:11.354Z,4.9
2022-10-11T01:24:13.438Z,4.8
2022-10-11T01:26:15.497Z,4.8
2022-10-11T01:28:20.795Z,4.7
2022-10-11T01:30:22.806Z,4.7
2022-10-11T01:32:24.907Z,4.6
2022-10-11T01:34:26.971Z,4.5
2022-10-11T01:36:29.018Z,4.5
2022-10-11T01:38:31.099Z,4.5
2022-10-11T01:40:33.298Z,4.6
2022-10-11T01:42:38.421Z,4.6
2022-10-11T01:44:40.452Z,4.6
2022-10-11T01:52:48.729Z,4.7
2022-10-11T01:55:08.701Z,4.7
2022-10-11T01:56:56.025Z,4.8
2022-10-11T01:58:58.097Z,4.9
2022-10-11T02:01:00.253Z,5
2022-10-11T02:02:02.788Z,5.1
2022-10-11T02:04:04.853Z,5.2
2022-10-11T02:06:07.719Z,5.4
2022-10-11T02:08:09.003Z,5.4
2022-10-11T02:10:14.224Z,5.5
2022-10-11T02:12:16.310Z,5.5
2022-10-11T02:14:18.367Z,5.6
2022-10-11T02:16:20.460Z,5.6
2022-10-11T02:18:22.514Z,5.6
2022-10-11T02:24:32.147Z,5.4
2022-10-11T02:30:38.149Z,5.5
2022-10-11T02:32:40.235Z,5.6
2022-10-11T02:38:49.643Z,5.3
2022-10-11T02:42:53.808Z,5.4
2022-10-11T02:44:55.905Z,5.5
2022-10-11T02:46:57.964Z,5.4
2022-10-11T02:49:00.085Z,5.4
2022-10-11T02:51:02.151Z,5.5
2022-10-11T02:53:07.449Z,5.5
2022-10-11T02:55:09.505Z,5.6
2022-10-11T02:57:11.599Z,5.5
2022-10-11T02:59:32.541Z,5.5
2022-10-11T03:01:34.763Z,5.7
2022-10-11T03:03:36.717Z,5.7
2022-10-11T03:05:41.970Z,5.6
2022-10-11T03:07:44.043Z,5.6
2022-10-11T03:09:46.129Z,5.5
2022-10-11T03:11:48.216Z,5.5
2022-10-11T03:13:50.302Z,5.5
2022-10-11T03:16:07.351Z,5.5
2022-10-11T03:17:55.959Z,5.6
2022-10-11T03:20:01.191Z,5.8
2022-10-11T03:22:03.264Z,5.7
2022-10-11T03:24:05.341Z,5.8
2022-10-11T03:26:07.843Z,5.9
2022-10-11T03:28:09.585Z,5.9
2022-10-11T03:30:14.212Z,5.9
2022-10-11T03:32:13.721Z,5.9
2022-10-11T03:34:18.983Z,5.8
2022-10-11T03:36:21.043Z,5.9
2022-10-11T03:38:23.145Z,5.9
2022-10-11T03:40:25.253Z,6
2022-10-11T03:42:27.329Z,5.9
2022-10-11T03:44:29.447Z,5.9
2022-10-11T03:46:31.571Z,5.9
2022-10-11T03:50:38.911Z,5.7
2022-10-11T03:53:43.607Z,5.7
2022-10-11T03:55:45.725Z,5.7
2022-10-11T03:57:47.816Z,5.8
2022-10-11T03:59:49.909Z,5.8
2022-10-11T04:01:55.230Z,5.7
2022-10-11T04:03:57.262Z,5.7
2022-10-11T04:05:59.357Z,5.6
2022-10-11T04:08:01.486Z,5.4
2022-10-11T04:10:03.559Z,5.5
2022-10-11T04:12:05.667Z,5.4
2022-10-11T04:14:07.741Z,5.3
2022-10-11T04:16:12.995Z,5.2
2022-10-11T04:18:15.077Z,5.2
2022-10-11T04:20:17.179Z,5.2
2022-10-11T04:22:19.259Z,5.1
2022-10-11T04:24:21.360Z,5
2022-10-11T04:26:23.453Z,5
2022-10-11T04:28:25.604Z,4.9
2022-10-11T04:30:30.803Z,4.9
2022-10-11T04:32:32.867Z,4.8
2022-10-11T04:34:34.947Z,4.8
2022-10-11T04:36:37.058Z,4.7
2022-10-11T04:38:39.128Z,4.7
2022-10-11T04:40:41.213Z,4.7
2022-10-11T04:42:43.303Z,4.8
2022-10-11T04:44:48.528Z,4.7
2022-10-11T04:46:50.603Z,4.7
2022-10-11T04:48:52.709Z,4.6
2022-10-11T04:49:55.341Z,4.6
2022-10-11T04:51:57.374Z,4.6
2022-10-11T04:53:59.499Z,4.8
2022-10-11T04:56:01.923Z,4.7
2022-10-11T04:58:06.814Z,4.7
2022-10-11T05:00:09.023Z,4.7
2022-10-11T05:02:11.078Z,4.7
2022-10-11T05:04:13.055Z,4.7
2022-10-11T05:06:15.123Z,4.9
2022-10-11T05:08:17.228Z,4.8
2022-10-11T05:10:19.419Z,4.8
2022-10-11T05:12:24.501Z,4.7
2022-10-11T05:14:26.581Z,4.7
2022-10-11T05:16:28.670Z,4.8
2022-10-11T05:18:30.727Z,4.8
2022-10-11T05:20:32.796Z,4.8
2022-10-11T05:22:34.876Z,5
2022-10-11T05:24:36.959Z,4.9
2022-10-11T05:26:42.169Z,4.8
2022-10-11T05:28:44.340Z,4.8
2022-10-11T05:30:46.465Z,4.7
2022-10-11T05:32:48.393Z,4.7
2022-10-11T05:34:50.463Z,4.6
2022-10-11T05:36:52.543Z,4.6
2022-10-11T05:38:54.611Z,4.6
2022-10-11T05:40:59.825Z,4.5
2022-10-11T05:43:01.904Z,4.5
2022-10-11T05:45:03.988Z,4.5
2022-10-11T05:48:08.680Z,4.5
2022-10-11T05:50:10.737Z,4.5
2022-10-11T05:52:12.824Z,4.5
2022-10-11T05:54:18.033Z,4.6
2022-10-11T05:56:20.126Z,4.7
2022-10-11T05:58:22.185Z,4.7
2022-10-11T06:00:24.255Z,4.7
2022-10-11T06:02:26.313Z,4.8
2022-10-11T06:04:28.377Z,4.9
2022-10-11T06:06:30.494Z,4.9
2022-10-11T06:08:35.701Z,4.9
2022-10-11T06:10:37.751Z,4.9
2022-10-11T06:12:39.834Z,4.9
2022-10-11T06:14:41.908Z,4.9
2022-10-11T06:16:44.119Z,5
2022-10-11T06:18:46.027Z,5.1
2022-10-11T06:20:48.109Z,5.2
2022-10-11T06:22:53.325Z,5.2
2022-10-11T06:24:55.402Z,5.3
2022-10-11T06:26:57.454Z,5.4
2022-10-11T06:28:59.568Z,5.5
2022-10-11T06:31:01.591Z,5.6
2022-10-11T06:33:04.951Z,5.7
2022-10-11T06:35:05.731Z,5.9
2022-10-11T06:37:10.968Z,6.1
2022-10-11T06:39:13.021Z,6.1
2022-10-11T06:41:15.133Z,6.2
2022-10-11T06:43:32.027Z,6.4
2022-10-11T06:45:34.111Z,6.4
2022-10-11T06:47:30.242Z,6.6
2022-10-11T06:49:35.481Z,6.7
2022-10-11T06:51:37.573Z,6.7
2022-10-11T06:53:39.657Z,6.9
2022-10-11T06:55:41.732Z,7
2022-10-11T06:57:43.815Z,7.1
2022-10-11T07:01:47.953Z,7.3
2022-10-11T07:09:59.499Z,7.7
2022-10-11T07:12:01.617Z,7.7
2022-10-11T07:14:03.707Z,7.8
2022-10-11T07:16:06.245Z,7.9
2022-10-11T07:18:11.070Z,8
2022-10-11T07:20:13.169Z,8
2022-10-11T07:22:15.289Z,8.1
2022-10-11T07:24:17.393Z,8.2
2022-10-11T07:26:19.477Z,8.3
2022-10-11T07:28:21.665Z,8.4
2022-10-11T07:30:23.704Z,8.4
2022-10-11T07:32:28.944Z,8.6
2022-10-11T07:34:31.049Z,8.6
2022-10-11T07:36:33.176Z,8.7
2022-10-11T07:37:35.786Z,8.8
2022-10-11T07:39:37.905Z,8.8
2022-10-11T07:41:45.472Z,8.9
2022-10-11T07:43:42.154Z,8.9
2022-10-11T07:45:47.313Z,9
2022-10-11T07:47:49.321Z,9
2022-10-11T07:49:51.443Z,9.1
2022-10-11T07:51:53.429Z,9.1
2022-10-11T07:53:55.446Z,9.2
2022-10-11T07:55:57.447Z,9.3
2022-10-11T07:57:59.463Z,9.4
2022-10-11T08:00:04.544Z,9.5
2022-10-11T08:02:06.553Z,9.6
2022-10-11T08:04:08.580Z,9.6
2022-10-11T08:06:10.806Z,9.7
2022-10-11T08:08:12.620Z,9.7
2022-10-11T08:10:14.640Z,9.8
2022-10-11T08:12:16.675Z,9.8
2022-10-11T08:14:21.760Z,9.9
2022-10-11T08:16:23.756Z,10
2022-10-11T08:18:25.815Z,10
2022-10-11T08:20:27.815Z,10
2022-10-11T08:22:29.837Z,10.1
2022-10-11T08:24:35.871Z,10
2022-10-11T08:26:33.891Z,10
2022-10-11T08:28:39.012Z,10
2022-10-11T08:30:40.982Z,10.1
2022-10-11T08:32:43.013Z,10.1
2022-10-11T08:33:45.536Z,10.2
2022-10-11T08:35:47.555Z,10.2
2022-10-11T08:37:49.587Z,10.2
2022-10-11T08:39:51.679Z,10.3
2022-10-11T08:41:57.701Z,10.3
2022-10-11T08:43:58.719Z,10.4
2022-10-11T08:46:00.743Z,10.4
2022-10-11T08:48:02.791Z,10.5
2022-10-11T08:50:04.792Z,10.6
2022-10-11T08:52:06.810Z,10.6
2022-10-11T08:54:08.833Z,10.8
2022-10-11T08:56:13.912Z,11
2022-10-11T08:58:15.912Z,11.1
2022-10-11T09:00:17.965Z,11.3
2022-10-11T09:02:19.991Z,11.5
2022-10-11T09:04:21.998Z,11.7
2022-10-11T09:06:24.016Z,11.8
2022-10-11T09:08:27.552Z,12
2022-10-11T09:10:32.597Z,12.3
2022-10-11T09:12:39.800Z,12.2
2022-10-11T09:14:36.656Z,12.3
2022-10-11T09:16:38.676Z,12.5
2022-10-11T09:18:40.688Z,12.6
2022-10-11T09:20:42.716Z,12.8
2022-10-11T09:22:44.741Z,12.9
2022-10-11T09:24:49.824Z,13
2022-10-11T09:26:51.849Z,13
2022-10-11T09:29:56.387Z,13.3
2022-10-11T09:31:58.428Z,13.2
2022-10-11T09:34:00.443Z,13.5
2022-10-11T09:36:02.784Z,13.8
2022-10-11T09:38:07.555Z,13.8
2022-10-11T09:40:09.583Z,13.8
2022-10-11T09:42:11.605Z,14
2022-10-11T09:44:13.640Z,14
2022-10-11T09:46:15.641Z,14.2
2022-10-11T09:48:17.691Z,14.2
2022-10-11T09:50:19.714Z,14.2
2022-10-11T09:52:24.796Z,14.4
2022-10-11T09:54:26.817Z,14.5
2022-10-11T09:56:28.846Z,14.6
2022-10-11T09:58:30.847Z,14.6
2022-10-11T10:00:32.933Z,14.6
2022-10-11T10:02:34.956Z,14.6
2022-10-11T10:04:36.977Z,14.8
2022-10-11T10:06:42.070Z,14.7
2022-10-11T10:08:44.111Z,14.8
2022-10-11T10:10:46.116Z,14.8
2022-10-11T10:12:48.127Z,14.9
2022-10-11T10:14:50.170Z,15
2022-10-11T10:18:54.218Z,15.2
2022-10-11T10:20:59.285Z,15.2
2022-10-11T10:23:01.314Z,15.3
2022-10-11T10:27:25.996Z,16.2
2022-10-11T10:29:28.008Z,16.1
2022-10-11T10:31:30.031Z,16
2022-10-11T10:33:35.118Z,16.1
2022-10-11T10:37:39.136Z,15.8
2022-10-11T10:39:41.153Z,15.7
2022-10-11T10:41:43.172Z,16.1
2022-10-11T10:43:45.198Z,16.1
2022-10-11T10:47:52.311Z,17.3
2022-10-11T10:56:00.344Z,18.6
2022-10-11T10:58:02.336Z,19.1
2022-10-11T11:00:04.357Z,19.7
2022-10-11T11:02:28.101Z,19.7
2022-10-11T11:04:11.430Z,19.8
2022-10-11T11:06:13.458Z,19.3
2022-10-11T11:08:15.450Z,20.3
2022-10-11T11:10:17.477Z,20.4
2022-10-11T11:12:19.474Z,20.2
2022-10-11T11:14:21.466Z,20.8
2022-10-11T11:18:28.567Z,21.9
2022-10-11T11:20:30.540Z,22.6
2022-10-11T11:21:34.957Z,23
2022-10-11T11:23:35.091Z,22.7
2022-10-11T11:25:40.267Z,19.1
2022-10-11T11:27:39.079Z,17.7
2022-10-11T11:29:44.127Z,17.2
2022-10-11T11:31:46.134Z,16.8
2022-10-11T11:33:48.905Z,18.1
2022-10-11T11:37:57.926Z,20.6
2022-10-11T11:39:54.118Z,21.6
2022-10-11T11:41:56.113Z,22.9
2022-10-11T11:44:01.171Z,22.4
2022-10-11T11:46:03.164Z,21.8
2022-10-11T11:48:05.163Z,19.2
2022-10-11T11:50:07.184Z,17.9
2022-10-11T11:52:09.154Z,19.7
2022-10-11T11:54:11.150Z,22.5
2022-10-11T11:56:13.155Z,19.8
2022-10-11T11:58:18.222Z,17.4
2022-10-11T12:00:20.205Z,16.8
2022-10-11T12:02:22.304Z,17.3
2022-10-11T12:04:24.188Z,20.1
2022-10-11T12:06:26.180Z,22
2022-10-11T12:08:28.166Z,22.8
2022-10-11T12:10:30.154Z,22.2
2022-10-11T12:12:35.231Z,21.7
2022-10-11T12:14:37.205Z,21.5
2022-10-11T12:16:39.197Z,22
2022-10-11T12:17:41.739Z,23.2
2022-10-11T12:19:43.727Z,23.3
2022-10-11T12:21:45.690Z,21.5
2022-10-11T12:23:47.676Z,20.6
2022-10-11T12:25:52.749Z,20.7
2022-10-11T12:27:54.729Z,19.1
2022-10-11T12:29:56.718Z,19.8
2022-10-11T12:31:58.695Z,21.1
2022-10-11T12:34:00.665Z,22
2022-10-11T12:36:05.802Z,21.7
2022-10-11T12:38:04.668Z,21.1
2022-10-11T12:40:09.681Z,21
2022-10-11T12:42:11.636Z,21.1
2022-10-11T12:44:13.621Z,22.2
2022-10-11T12:46:15.573Z,21.5
2022-10-11T12:48:17.559Z,21.5
2022-10-11T12:50:19.520Z,21.4
2022-10-11T12:52:21.478Z,21.8
2022-10-11T12:54:29.016Z,21.6
2022-10-11T12:56:28.491Z,21.8
2022-10-11T12:58:30.490Z,21.4
2022-10-11T13:00:32.428Z,21.6
2022-10-11T13:02:34.353Z,21.5
2022-10-11T13:06:38.275Z,21.1
2022-10-11T13:08:43.331Z,18.8
2022-10-11T13:10:45.268Z,18.4
2022-10-11T13:12:47.246Z,17.5
2022-10-11T13:13:49.743Z,16.9
2022-10-11T13:15:51.712Z,16.8
2022-10-11T13:17:53.654Z,16.7
2022-10-11T13:19:55.679Z,16.7
2022-10-11T13:22:00.669Z,16.4
2022-10-11T13:24:02.647Z,16.3
2022-10-11T13:26:04.632Z,16.4
2022-10-11T13:28:06.593Z,16.3
2022-10-11T13:30:08.698Z,16.3
2022-10-11T13:32:10.573Z,16.3
2022-10-11T13:34:12.550Z,16
2022-10-11T13:36:17.642Z,16.1
2022-10-11T13:38:19.611Z,16.1
2022-10-11T13:40:21.600Z,16.1
2022-10-11T13:42:23.585Z,16.3
2022-10-11T13:44:25.595Z,16.2
2022-10-11T13:46:27.573Z,16.2
2022-10-11T13:48:32.123Z,16.3
2022-10-11T13:50:34.718Z,16.3
2022-10-11T13:52:36.658Z,17
2022-10-11T13:54:38.645Z,18.7
2022-10-11T13:58:42.653Z,19.9
2022-10-11T14:00:44.671Z,20.2
2022-10-11T14:02:46.671Z,20.6
2022-10-11T14:04:51.745Z,20.7
2022-10-11T14:11:18.233Z,21
2022-10-11T14:15:22.232Z,20.1
2022-10-11T14:17:27.345Z,20
2022-10-11T14:19:29.336Z,20
2022-10-11T14:21:31.330Z,20.4
2022-10-11T14:23:33.305Z,20.6
2022-10-11T14:27:37.328Z,19.7
2022-10-11T14:29:39.293Z,20.1
2022-10-11T14:31:44.379Z,20.9
2022-10-11T14:33:46.347Z,20.7
2022-10-11T14:35:48.331Z,20.4
2022-10-11T14:37:50.319Z,20.3
2022-10-11T14:39:52.296Z,19.9
2022-10-11T14:41:54.298Z,20.4
2022-10-11T14:43:56.276Z,19.8
2022-10-11T14:46:01.336Z,19.5
2022-10-11T14:48:03.317Z,19.6
2022-10-11T14:50:05.284Z,19.4
2022-10-11T14:52:07.253Z,19.6
2022-10-11T14:54:09.232Z,19.5
2022-10-11T14:56:11.189Z,19.8
2022-10-11T14:58:13.180Z,19.7
2022-10-11T15:00:19.724Z,19.5
2022-10-11T15:02:21.687Z,19.2
2022-10-11T15:04:23.665Z,19.1
2022-10-11T15:05:29.824Z,19.4
2022-10-11T15:07:28.215Z,19.1
2022-10-11T15:09:30.137Z,19.1
2022-10-11T15:11:32.123Z,19.6
2022-10-11T15:13:37.184Z,18.8
2022-10-11T15:15:39.142Z,18.4
2022-10-11T15:17:41.114Z,18.6
2022-10-11T15:19:43.101Z,18.9
2022-10-11T15:21:45.058Z,18.8
2022-10-11T15:23:47.038Z,18.9
2022-10-11T15:25:49.012Z,19.5
2022-10-11T15:27:54.061Z,20
2022-10-11T15:29:56.038Z,20.1
2022-10-11T15:31:58.031Z,19.3
2022-10-11T15:34:00.001Z,18
2022-10-11T15:36:02.001Z,18.7
2022-10-11T15:38:03.958Z,19.5
2022-10-11T15:40:05.954Z,19.9
2022-10-11T15:42:11.022Z,19.6
2022-10-11T15:44:13.006Z,19.6
2022-10-11T15:48:16.969Z,19
2022-10-11T15:50:18.933Z,18.4
2022-10-11T15:52:20.940Z,18.5
2022-10-11T15:54:22.917Z,18.6
2022-10-11T15:56:32.910Z,18.6
2022-10-11T15:58:29.975Z,18.6
2022-10-11T16:00:31.965Z,18.6
2022-10-11T16:01:34.514Z,18
2022-10-11T16:03:36.497Z,17.7
2022-10-11T16:05:38.467Z,17.1
2022-10-11T16:07:40.463Z,16.1
2022-10-11T16:09:45.559Z,15.1
2022-10-11T16:11:47.565Z,14.9
2022-10-11T16:13:49.549Z,14.6
2022-10-11T16:15:51.569Z,14.2
2022-10-11T16:17:53.567Z,14
2022-10-11T16:19:55.588Z,13.9
2022-10-11T16:21:57.611Z,13.7
2022-10-11T16:24:02.713Z,13.4
2022-10-11T16:28:06.786Z,13.2
2022-10-11T16:30:08.788Z,13.2
2022-10-11T16:32:10.808Z,13
2022-10-11T16:34:12.850Z,12.8
2022-10-11T16:38:19.987Z,12.4
2022-10-11T16:40:22.031Z,12.3
2022-10-11T16:44:26.107Z,12.1
2022-10-11T16:46:28.160Z,12
2022-10-11T16:50:34.479Z,11.8
2022-10-11T16:54:39.388Z,11.6
2022-10-11T16:56:41.437Z,11.4
2022-10-11T16:59:46.031Z,11.2
2022-10-11T17:01:48.087Z,11.2
2022-10-11T17:07:57.321Z,11
2022-10-11T17:09:59.359Z,11
2022-10-11T17:12:01.409Z,11
2022-10-11T17:16:05.765Z,11
2022-10-11T17:18:07.566Z,11
2022-10-11T17:24:16.755Z,11
2022-10-11T17:26:19.301Z,11
2022-10-11T17:30:22.898Z,11.2
2022-10-11T17:34:30.047Z,11.2
2022-10-11T17:36:32.138Z,11.2
2022-10-11T17:40:36.197Z,11.3
2022-10-11T17:42:38.225Z,11.3
2022-10-11T17:44:40.290Z,11.4
2022-10-11T17:46:42.358Z,11.4
2022-10-11T17:48:47.454Z,11.4
2022-10-11T17:50:50.762Z,11.4
2022-10-11T17:52:51.535Z,11.3
2022-10-11T17:55:08.575Z,11.4
2022-10-11T17:57:10.632Z,11.4
2022-10-11T17:59:12.688Z,11.4
2022-10-11T18:01:19.507Z,11.3
2022-10-11T18:03:19.815Z,11.3
2022-10-11T18:05:21.861Z,11.3
2022-10-11T18:07:23.908Z,11.3
2022-10-11T18:09:25.956Z,11.2
2022-10-11T18:11:28.011Z,11.2
2022-10-11T18:13:30.101Z,11.1
2022-10-11T18:15:35.167Z,11
2022-10-11T18:17:37.883Z,11
2022-10-11T18:19:39.261Z,10.9
2022-10-11T18:21:41.324Z,10.9
2022-10-11T18:23:43.359Z,10.9
2022-10-11T18:27:47.465Z,10.7
2022-10-11T18:33:56.676Z,10.4
2022-10-11T18:35:58.725Z,10.4
2022-10-11T18:38:01.082Z,10.3
2022-10-11T18:40:02.816Z,10.2
2022-10-11T18:42:04.879Z,10.1
2022-10-11T18:44:09.952Z,10
2022-10-11T18:46:12.018Z,9.9
2022-10-11T18:48:14.052Z,9.8
2022-10-11T18:49:16.602Z,9.7
2022-10-11T18:51:18.659Z,9.7
2022-10-11T18:53:20.685Z,9.7
2022-10-11T18:55:22.753Z,9.6
2022-10-11T18:57:27.885Z,9.5
2022-10-11T18:59:29.885Z,9.4
2022-10-11T19:01:32.031Z,9.4
2022-10-11T19:03:35.230Z,9.3
2022-10-11T19:05:35.990Z,9.3
2022-10-11T19:07:38.037Z,9.2
2022-10-11T19:09:40.086Z,9.1
2022-10-11T19:13:47.251Z,9
2022-10-11T19:15:49.293Z,9
2022-10-11T19:17:51.314Z,8.9
2022-10-11T19:19:53.460Z,8.9
2022-10-11T19:21:55.485Z,8.8
2022-10-11T19:23:57.573Z,8.7
2022-10-11T19:26:02.831Z,8.7
2022-10-11T19:28:04.657Z,8.6
2022-10-11T19:30:06.700Z,8.6
2022-10-11T19:32:08.739Z,8.6
2022-10-11T19:34:10.759Z,8.5
2022-10-11T19:36:12.799Z,8.5
2022-10-11T19:38:14.880Z,8.5
2022-10-11T19:40:19.919Z,8.4
2022-10-11T19:42:22.078Z,8.3
2022-10-11T19:44:24.225Z,8.3
2022-10-11T19:45:26.850Z,8.2
2022-10-11T19:47:29.304Z,8.2
2022-10-11T19:49:31.119Z,8.2
2022-10-11T19:51:33.255Z,8.1
2022-10-11T19:53:38.352Z,8.1
2022-10-11T19:55:44.278Z,8.1
2022-10-11T19:57:42.414Z,8.1
2022-10-11T19:59:44.444Z,8
2022-10-11T20:01:51.303Z,8
2022-10-11T20:03:48.503Z,8
2022-10-11T20:05:50.547Z,8
2022-10-11T20:07:55.624Z,7.8
2022-10-11T20:09:57.746Z,7.8
2022-10-11T20:11:59.792Z,7.8
2022-10-11T20:14:01.809Z,7.8
2022-10-11T20:16:03.954Z,7.7
2022-10-11T20:18:05.981Z,7.7
2022-10-11T20:20:08.019Z,7.7
2022-10-11T20:22:13.315Z,7.6
2022-10-11T20:24:15.432Z,7.6
2022-10-11T20:26:17.568Z,7.5
2022-10-11T20:28:19.758Z,7.4
2022-10-11T20:30:21.842Z,7.4
2022-10-11T20:32:23.961Z,7.4
2022-10-11T20:34:26.093Z,7.4
2022-10-11T20:36:31.377Z,7.4
2022-10-11T20:38:33.483Z,7.4
2022-10-11T20:40:35.620Z,7.3
2022-10-11T20:41:38.244Z,7.3
2022-10-11T20:43:40.376Z,7.3
2022-10-11T20:45:42.508Z,7.2
2022-10-11T20:47:44.621Z,7.2
2022-10-11T20:49:51.341Z,7.2
2022-10-11T20:51:53.417Z,7.1
2022-10-11T20:53:55.549Z,7.2
2022-10-11T20:55:57.656Z,7.1
2022-10-11T20:57:59.762Z,7.1
2022-10-11T21:00:01.915Z,7.1
2022-10-11T21:02:03.995Z,7
2022-10-11T21:04:09.286Z,7
2022-10-11T21:06:11.403Z,6.9
2022-10-11T21:08:13.537Z,6.9
2022-10-11T21:10:15.653Z,6.9
2022-10-11T21:14:19.874Z,6.8
2022-10-11T21:18:27.285Z,6.8
2022-10-11T21:20:29.424Z,6.8
2022-10-11T21:22:31.825Z,6.8
2022-10-11T21:24:33.636Z,6.8
2022-10-11T21:26:35.763Z,6.7
2022-10-11T21:28:37.945Z,6.8
2022-10-11T21:30:40.008Z,6.7
2022-10-11T21:32:45.337Z,6.6
2022-10-11T21:34:47.417Z,6.6
2022-10-11T21:36:49.518Z,6.6
2022-10-11T21:39:06.700Z,6.5
2022-10-11T21:41:08.819Z,6.5
2022-10-11T21:45:16.192Z,6.4
2022-10-11T21:47:18.309Z,6.4
2022-10-11T21:49:20.418Z,6.3
2022-10-11T21:51:22.540Z,6.3
2022-10-11T21:53:24.644Z,6.3
2022-10-11T21:55:26.750Z,6.3
2022-10-11T21:57:28.875Z,6.3
2022-10-11T21:59:34.158Z,6.1
2022-10-11T22:01:36.351Z,6.1
2022-10-11T22:03:38.395Z,6.1
2022-10-11T22:05:40.500Z,6.2
2022-10-11T22:07:42.591Z,6.2
2022-10-11T22:09:44.727Z,6.2
2022-10-11T22:13:52.111Z,6
2022-10-11T22:15:54.225Z,5.9
2022-10-11T22:17:56.330Z,5.9
2022-10-11T22:19:58.418Z,5.9
2022-10-11T22:22:00.530Z,5.9
2022-10-11T22:24:02.647Z,6
2022-10-11T22:28:10.028Z,5.8
2022-10-11T22:30:12.098Z,5.8
2022-10-11T22:32:14.182Z,5.8
2022-10-11T22:33:16.805Z,5.8
2022-10-11T22:35:18.924Z,5.7
2022-10-11T22:37:21.004Z,5.7
2022-10-11T22:39:23.114Z,5.7
2022-10-11T22:41:28.389Z,5.7
2022-10-11T22:43:30.775Z,5.6
2022-10-11T22:45:32.568Z,5.6
2022-10-11T22:47:35.464Z,5.6
2022-10-11T22:49:36.762Z,5.6
2022-10-11T22:51:38.843Z,5.5
2022-10-11T22:53:40.949Z,5.5
2022-10-11T22:55:46.194Z,5.5
2022-10-11T22:57:48.474Z,5.4
2022-10-11T22:59:50.360Z,5.4
2022-10-11T23:01:52.466Z,5.4
2022-10-11T23:03:54.617Z,5.4
2022-10-11T23:05:56.671Z,5.4
2022-10-11T23:07:58.744Z,5.4
2022-10-11T23:12:06.135Z,5.3
2022-10-11T23:14:08.212Z,5.3
2022-10-11T23:16:10.297Z,5.2
2022-10-11T23:18:12.397Z,5.2
2022-10-11T23:20:14.481Z,5.2
2022-10-11T23:22:16.581Z,5.2
2022-10-11T23:24:21.834Z,5.2
2022-10-11T23:26:23.892Z,5.1
2022-10-11T23:28:26.037Z,5.2
2022-10-11T23:29:28.606Z,5.1
2022-10-11T23:31:30.693Z,5.2
2022-10-11T23:33:32.803Z,5.2
2022-10-11T23:37:40.328Z,5.1
2022-10-11T23:41:44.329Z,5.1
2022-10-11T23:43:46.402Z,5.1
2022-10-11T23:45:48.500Z,5.1
2022-10-11T23:47:50.597Z,5.1
2022-10-11T23:49:52.682Z,5.1
2022-10-11T23:51:57.921Z,5
2022-10-11T23:53:59.995Z,5
2022-10-11T23:56:02.088Z,5
2022-10-11T23:58:04.159Z,4.9
